createdAt,value
2022-08-03T00:00:33.624Z,63.36
2022-08-03T00:03:23.273Z,63.44
2022-08-03T00:06:14.741Z,63.54
2022-08-03T00:09:08.638Z,63.57
2022-08-03T00:11:50.226Z,63.60
2022-08-03T00:14:40.202Z,63.48
2022-08-03T00:17:52.311Z,63.58
2022-08-03T00:20:41.380Z,63.77
2022-08-03T00:23:50.960Z,63.89
2022-08-03T00:26:41.829Z,63.88
2022-08-03T00:30:00.001Z,63.90
2022-08-03T00:32:49.121Z,63.97
2022-08-03T00:35:46.535Z,63.85
2022-08-03T00:38:41.098Z,63.92
2022-08-03T00:41:31.340Z,63.94
2022-08-03T00:44:20.433Z,64.05
2022-08-03T00:47:10.853Z,64.26
2022-08-03T00:50:02.178Z,64.51
2022-08-03T00:52:54.212Z,64.16
2022-08-03T00:55:49.169Z,64.21
2022-08-03T00:58:38.293Z,64.23
2022-08-03T01:01:30.661Z,64.21
2022-08-03T01:04:22.227Z,64.32
2022-08-03T01:07:27.779Z,64.35
2022-08-03T01:10:26.604Z,64.41
2022-08-03T01:14:01.314Z,64.23
2022-08-03T01:16:44.363Z,64.44
2022-08-03T01:19:46.441Z,64.55
2022-08-03T01:22:51.699Z,64.62
2022-08-03T01:25:55.136Z,64.66
2022-08-03T01:29:01.559Z,64.46
2022-08-03T01:32:58.042Z,64.57
2022-08-03T01:35:17.096Z,64.90
2022-08-03T01:38:13.435Z,64.89
2022-08-03T01:41:07.468Z,64.80
2022-08-03T01:44:27.144Z,64.86
2022-08-03T01:47:19.484Z,64.92
2022-08-03T01:50:20.058Z,64.96
2022-08-03T01:53:11.507Z,64.94
2022-08-03T01:56:06.748Z,65.11
2022-08-03T01:58:59.732Z,65.43
2022-08-03T02:02:27.740Z,65.46
2022-08-03T02:05:01.559Z,65.28
2022-08-03T02:07:51.547Z,65.20
2022-08-03T02:10:43.404Z,65.19
2022-08-03T02:13:35.307Z,65.63
2022-08-03T02:16:25.933Z,66.14
2022-08-03T02:19:16.748Z,65.94
2022-08-03T02:22:10.797Z,65.79
2022-08-03T02:25:02.125Z,65.66
2022-08-03T02:27:55.289Z,65.43
2022-08-03T02:30:51.834Z,65.60
2022-08-03T02:33:41.205Z,65.57
2022-08-03T02:36:34.860Z,65.71
2022-08-03T02:39:26.926Z,65.69
2022-08-03T02:42:20.569Z,65.59
2022-08-03T02:45:16.793Z,65.34
2022-08-03T02:48:13.296Z,65.58
2022-08-03T02:51:04.461Z,65.66
2022-08-03T02:53:56.177Z,65.57
2022-08-03T02:56:46.887Z,65.64
2022-08-03T02:59:38.042Z,65.81
2022-08-03T03:02:28.998Z,65.96
2022-08-03T03:05:56.761Z,65.76
2022-08-03T03:08:34.264Z,65.90
2022-08-03T03:11:25.165Z,65.75
2022-08-03T03:14:33.621Z,65.66
2022-08-03T03:17:24.000Z,65.94
2022-08-03T03:20:29.393Z,65.88
2022-08-03T03:23:21.615Z,65.99
2022-08-03T03:26:13.136Z,65.76
2022-08-03T03:29:04.538Z,65.85
2022-08-03T03:31:54.174Z,66.12
2022-08-03T03:34:44.326Z,66.09
2022-08-03T03:37:33.383Z,66.26
2022-08-03T03:40:22.851Z,66.10
2022-08-03T03:43:13.053Z,66.10
2022-08-03T03:46:02.822Z,66.31
2022-08-03T03:48:52.510Z,66.30
2022-08-03T03:51:41.233Z,66.55
2022-08-03T03:54:41.082Z,66.30
2022-08-03T03:57:30.222Z,66.61
2022-08-03T04:00:22.387Z,66.36
2022-08-03T04:03:12.230Z,66.64
2022-08-03T04:06:21.773Z,66.70
2022-08-03T04:09:30.470Z,66.71
2022-08-03T04:12:22.758Z,67.25
2022-08-03T04:15:14.057Z,67.45
2022-08-03T04:18:08.664Z,67.29
2022-08-03T04:21:01.429Z,67.32
2022-08-03T04:23:55.033Z,66.95
2022-08-03T04:26:49.568Z,67.08
2022-08-03T04:29:48.550Z,67.25
2022-08-03T04:32:46.037Z,67.24
2022-08-03T04:35:54.743Z,67.17
2022-08-03T04:38:55.394Z,67.21
2022-08-03T04:42:07.718Z,67.18
2022-08-03T04:45:00.425Z,67.25
2022-08-03T04:47:51.512Z,67.23
2022-08-03T04:50:41.889Z,67.29
2022-08-03T04:53:31.075Z,67.03
2022-08-03T04:56:20.090Z,67.03
2022-08-03T04:59:11.972Z,67.20
2022-08-03T05:02:04.133Z,66.67
2022-08-03T05:04:53.049Z,66.61
2022-08-03T05:07:42.323Z,66.74
2022-08-03T05:10:31.445Z,67.10
2022-08-03T05:13:20.311Z,67.25
2022-08-03T05:16:09.586Z,67.08
2022-08-03T05:18:58.207Z,66.88
2022-08-03T05:21:52.536Z,67.14
2022-08-03T05:24:41.690Z,67.18
2022-08-03T05:27:30.662Z,67.01
2022-08-03T05:30:32.585Z,66.84
2022-08-03T05:33:23.360Z,66.78
2022-08-03T05:36:13.169Z,66.94
2022-08-03T05:39:04.449Z,67.30
2022-08-03T05:41:43.202Z,67.29
2022-08-03T05:44:33.537Z,67.10
2022-08-03T05:47:22.406Z,67.03
2022-08-03T05:50:18.412Z,66.61
2022-08-03T05:53:07.546Z,66.46
2022-08-03T05:56:13.116Z,66.56
2022-08-03T05:59:35.753Z,66.20
2022-08-03T06:02:17.658Z,66.25
2022-08-03T06:05:09.244Z,66.50
2022-08-03T06:07:58.130Z,66.67
2022-08-03T06:10:49.103Z,66.52
2022-08-03T06:13:38.357Z,66.60
2022-08-03T06:16:25.469Z,66.49
2022-08-03T06:19:14.469Z,66.65
2022-08-03T06:22:04.375Z,66.34
2022-08-03T06:24:54.718Z,66.06
2022-08-03T06:27:39.609Z,66.17
2022-08-03T06:30:31.950Z,66.04
2022-08-03T06:33:20.885Z,66.33
2022-08-03T06:36:10.012Z,66.33
2022-08-03T06:39:03.000Z,66.44
2022-08-03T06:41:53.282Z,66.17
2022-08-03T06:44:41.927Z,66.34
2022-08-03T06:51:00.432Z,66.34
2022-08-03T06:53:49.807Z,66.17
2022-08-03T06:56:39.472Z,66.04
2022-08-03T07:00:10.286Z,66.22
2022-08-03T07:02:40.269Z,66.35
2022-08-03T07:05:32.989Z,66.36
2022-08-03T07:08:33.542Z,66.48
2022-08-03T07:11:24.739Z,66.34
2022-08-03T07:14:13.903Z,66.25
2022-08-03T07:17:04.520Z,66.06
2022-08-03T07:19:56.149Z,66.10
2022-08-03T07:22:46.172Z,65.93
2022-08-03T07:25:35.121Z,65.95
2022-08-03T07:28:25.195Z,65.94
2022-08-03T07:31:13.762Z,65.68
2022-08-03T07:34:04.006Z,65.56
2022-08-03T07:36:53.105Z,65.58
2022-08-03T07:39:41.932Z,65.55
2022-08-03T07:42:31.758Z,65.46
2022-08-03T07:45:24.116Z,65.46
2022-08-03T07:48:07.595Z,65.49
2022-08-03T07:51:02.035Z,65.38
2022-08-03T07:53:50.735Z,65.36
2022-08-03T07:56:41.849Z,65.33
2022-08-03T07:59:56.764Z,65.21
2022-08-03T08:02:44.903Z,64.90
2022-08-03T08:05:33.777Z,64.66
2022-08-03T08:08:22.685Z,64.29
2022-08-03T08:11:11.746Z,64.23
2022-08-03T08:14:02.407Z,64.14
2022-08-03T08:16:51.414Z,63.92
2022-08-03T08:19:41.416Z,63.38
2022-08-03T08:22:43.362Z,63.31
2022-08-03T08:25:34.633Z,63.13
2022-08-03T08:28:32.541Z,62.94
2022-08-03T08:31:22.289Z,62.95
2022-08-03T08:34:10.994Z,62.81
2022-08-03T08:36:58.959Z,62.66
2022-08-03T08:39:47.918Z,62.72
2022-08-03T08:42:40.330Z,62.70
2022-08-03T08:45:34.140Z,62.79
2022-08-03T08:48:26.489Z,62.70
2022-08-03T08:51:17.980Z,62.73
2022-08-03T08:54:09.163Z,62.81
2022-08-03T08:57:16.245Z,62.80
2022-08-03T09:00:14.360Z,62.74
2022-08-03T09:03:05.808Z,62.68
2022-08-03T09:05:56.305Z,62.73
2022-08-03T09:08:45.985Z,62.40
2022-08-03T09:11:54.547Z,62.75
2022-08-03T09:15:00.906Z,62.60
2022-08-03T09:17:54.135Z,62.14
2022-08-03T09:20:34.530Z,61.99
2022-08-03T09:23:51.906Z,61.83
2022-08-03T09:26:31.908Z,61.68
2022-08-03T09:29:22.490Z,60.60
2022-08-03T09:32:12.723Z,60.52
2022-08-03T09:35:05.745Z,60.51
2022-08-03T09:38:14.869Z,60.00
2022-08-03T09:41:18.292Z,60.09
2022-08-03T09:44:07.838Z,59.75
2022-08-03T09:46:51.878Z,59.26
2022-08-03T09:49:55.860Z,58.82
2022-08-03T09:52:51.801Z,58.61
2022-08-03T09:56:34.095Z,58.08
2022-08-03T09:59:00.696Z,57.56
2022-08-03T10:01:49.606Z,56.74
2022-08-03T10:04:48.339Z,57.30
2022-08-03T10:07:47.636Z,57.17
2022-08-03T10:10:43.556Z,57.04
2022-08-03T10:13:32.584Z,56.68
2022-08-03T10:16:25.502Z,56.57
2022-08-03T10:19:15.485Z,56.31
2022-08-03T10:22:10.868Z,56.02
2022-08-03T10:25:03.322Z,55.68
2022-08-03T10:27:53.379Z,55.21
2022-08-03T10:30:50.337Z,55.21
2022-08-03T10:33:49.502Z,54.88
2022-08-03T10:36:42.449Z,54.36
2022-08-03T10:39:36.820Z,53.83
2022-08-03T10:42:30.715Z,53.99
2022-08-03T10:45:20.946Z,53.95
2022-08-03T10:48:10.445Z,53.96
2022-08-03T10:51:00.083Z,53.43
2022-08-03T10:53:54.751Z,53.20
2022-08-03T10:57:13.663Z,52.98
2022-08-03T11:00:11.730Z,52.80
2022-08-03T11:03:08.424Z,52.48
2022-08-03T11:06:18.365Z,52.41
2022-08-03T11:09:19.921Z,52.15
2022-08-03T11:12:22.360Z,51.92
2022-08-03T11:15:31.773Z,51.62
2022-08-03T11:18:20.661Z,51.34
2022-08-03T11:21:15.867Z,51.35
2022-08-03T11:24:07.700Z,50.85
2022-08-03T11:27:20.083Z,50.73
2022-08-03T11:30:27.659Z,50.11
2022-08-03T11:33:30.412Z,49.71
2022-08-03T11:36:32.439Z,50.18
2022-08-03T11:39:21.485Z,50.19
2022-08-03T11:42:47.784Z,49.90
2022-08-03T11:45:37.315Z,49.72
2022-08-03T11:48:29.015Z,49.51
2022-08-03T11:51:22.782Z,49.47
2022-08-03T11:54:11.590Z,49.38
2022-08-03T11:57:00.220Z,49.21
2022-08-03T11:59:49.239Z,49.17
2022-08-03T12:02:53.593Z,48.92
2022-08-03T12:05:51.202Z,48.92
2022-08-03T12:08:43.028Z,48.80
2022-08-03T12:11:32.606Z,48.75
2022-08-03T12:14:49.683Z,48.66
2022-08-03T12:17:34.439Z,48.31
2022-08-03T12:20:34.766Z,48.13
2022-08-03T12:23:14.578Z,48.07
2022-08-03T12:26:08.148Z,48.22
2022-08-03T12:28:57.358Z,48.06
2022-08-03T12:31:46.319Z,47.84
2022-08-03T12:34:47.858Z,47.93
2022-08-03T12:37:36.879Z,48.04
2022-08-03T12:40:28.357Z,47.46
2022-08-03T12:43:17.196Z,47.34
2022-08-03T12:46:11.921Z,47.38
2022-08-03T12:49:05.007Z,47.35
2022-08-03T12:52:00.781Z,47.00
2022-08-03T12:54:56.394Z,46.69
2022-08-03T12:57:45.195Z,46.34
2022-08-03T13:00:34.703Z,46.34
2022-08-03T13:03:39.496Z,46.49
2022-08-03T13:06:32.121Z,46.38
2022-08-03T13:09:20.790Z,46.91
2022-08-03T13:12:13.302Z,47.11
2022-08-03T13:15:01.906Z,46.56
2022-08-03T13:17:51.000Z,46.20
2022-08-03T13:20:39.776Z,46.61
2022-08-03T13:23:29.431Z,46.74
2022-08-03T13:26:23.270Z,46.54
2022-08-03T13:29:12.497Z,46.39
2022-08-03T13:32:01.760Z,46.47
2022-08-03T13:34:50.585Z,46.57
2022-08-03T13:37:42.332Z,46.38
2022-08-03T13:40:41.493Z,46.63
2022-08-03T13:43:31.293Z,46.69
2022-08-03T13:46:20.179Z,46.79
2022-08-03T13:49:09.177Z,46.50
2022-08-03T13:51:58.371Z,46.45
2022-08-03T13:54:47.713Z,46.28
2022-08-03T13:58:05.170Z,46.35
2022-08-03T14:00:47.991Z,46.23
2022-08-03T14:03:37.192Z,46.41
2022-08-03T14:06:25.987Z,46.40
2022-08-03T14:09:15.505Z,46.15
2022-08-03T14:12:08.578Z,46.06
2022-08-03T14:14:59.738Z,46.15
2022-08-03T14:17:50.311Z,46.28
2022-08-03T14:20:49.140Z,46.25
2022-08-03T14:23:43.072Z,46.03
2022-08-03T14:26:33.917Z,46.09
2022-08-03T14:29:22.804Z,45.99
2022-08-03T14:32:13.519Z,45.99
2022-08-03T14:35:02.603Z,45.96
2022-08-03T14:37:52.043Z,45.71
2022-08-03T14:40:41.355Z,45.62
2022-08-03T14:43:34.187Z,45.77
2022-08-03T14:46:23.494Z,45.75
2022-08-03T14:50:37.035Z,45.34
2022-08-03T14:52:21.023Z,45.17
2022-08-03T14:55:11.066Z,45.19
2022-08-03T14:58:02.399Z,45.23
2022-08-03T15:00:54.240Z,45.45
2022-08-03T15:03:43.766Z,45.44
2022-08-03T15:06:33.009Z,45.24
2022-08-03T15:09:23.810Z,45.10
2022-08-03T15:12:13.112Z,45.31
2022-08-03T15:15:01.888Z,45.57
2022-08-03T15:18:00.297Z,45.74
2022-08-03T15:20:50.354Z,45.83
2022-08-03T15:23:39.279Z,45.69
2022-08-03T15:26:34.211Z,45.86
2022-08-03T15:30:07.625Z,45.66
2022-08-03T15:32:35.414Z,45.68
2022-08-03T15:35:24.480Z,45.78
2022-08-03T15:38:13.397Z,45.84
2022-08-03T15:41:02.464Z,45.79
2022-08-03T15:43:52.283Z,45.93
2022-08-03T15:46:41.042Z,45.90
2022-08-03T15:49:30.390Z,46.11
2022-08-03T15:52:19.319Z,46.04
2022-08-03T15:55:10.666Z,46.21
2022-08-03T15:59:03.434Z,46.32
2022-08-03T16:01:19.266Z,46.36
2022-08-03T16:04:08.868Z,46.56
2022-08-03T16:06:57.828Z,46.71
2022-08-03T16:09:47.089Z,46.81
2022-08-03T16:12:36.375Z,46.96
2022-08-03T16:15:25.766Z,47.02
2022-08-03T16:18:14.513Z,47.10
2022-08-03T16:21:05.301Z,47.21
2022-08-03T16:23:59.956Z,47.16
2022-08-03T16:26:50.951Z,47.24
2022-08-03T16:29:39.701Z,47.38
2022-08-03T16:32:29.075Z,47.38
2022-08-03T16:35:19.309Z,47.33
2022-08-03T16:38:14.113Z,47.48
2022-08-03T16:41:07.821Z,47.40
2022-08-03T16:43:56.612Z,47.54
2022-08-03T16:46:45.662Z,47.63
2022-08-03T16:49:55.251Z,47.64
2022-08-03T16:52:47.038Z,47.82
2022-08-03T16:55:48.728Z,47.83
2022-08-03T16:58:44.545Z,47.85
2022-08-03T17:01:37.754Z,48.00
2022-08-03T17:04:27.530Z,48.06
2022-08-03T17:07:19.971Z,48.10
2022-08-03T17:10:12.412Z,48.16
2022-08-03T17:13:01.184Z,48.20
2022-08-03T17:15:58.161Z,48.18
2022-08-03T17:18:56.090Z,48.42
2022-08-03T17:21:56.314Z,48.46
2022-08-03T17:24:49.989Z,48.49
2022-08-03T17:28:48.900Z,48.53
2022-08-03T17:31:22.854Z,48.53
2022-08-03T17:34:18.178Z,48.80
2022-08-03T17:37:27.294Z,48.90
2022-08-03T17:40:17.950Z,49.08
2022-08-03T17:44:08.129Z,49.09
2022-08-03T17:46:16.976Z,49.28
2022-08-03T17:49:23.749Z,49.46
2022-08-03T17:52:21.577Z,49.61
2022-08-03T17:55:54.823Z,49.72
2022-08-03T17:58:31.906Z,49.81
2022-08-03T18:02:04.359Z,50.03
2022-08-03T18:04:57.360Z,50.07
2022-08-03T18:07:59.266Z,50.28
2022-08-03T18:10:55.742Z,50.52
2022-08-03T18:14:09.998Z,50.76
2022-08-03T18:17:10.244Z,50.91
2022-08-03T18:20:02.125Z,51.00
2022-08-03T18:22:58.404Z,51.17
2022-08-03T18:25:58.024Z,51.30
2022-08-03T18:28:51.371Z,51.52
2022-08-03T18:32:02.381Z,51.54
2022-08-03T18:34:54.045Z,51.69
2022-08-03T18:37:51.965Z,51.84
2022-08-03T18:40:48.556Z,51.88
2022-08-03T18:43:46.567Z,51.90
2022-08-03T18:46:45.909Z,52.10
2022-08-03T18:49:42.419Z,52.28
2022-08-03T18:52:45.782Z,52.28
2022-08-03T18:55:40.198Z,52.38
2022-08-03T18:59:02.258Z,52.56
2022-08-03T19:01:58.069Z,52.65
2022-08-03T19:04:53.811Z,52.86
2022-08-03T19:07:58.388Z,53.02
2022-08-03T19:11:00.547Z,53.11
2022-08-03T19:13:50.893Z,53.21
2022-08-03T19:16:44.172Z,53.42
2022-08-03T19:19:43.382Z,53.63
2022-08-03T19:22:34.890Z,53.61
2022-08-03T19:25:34.398Z,53.78
2022-08-03T19:28:29.919Z,53.88
2022-08-03T19:31:20.517Z,53.91
2022-08-03T19:34:10.526Z,54.09
2022-08-03T19:37:00.458Z,54.13
2022-08-03T19:39:56.502Z,54.22
2022-08-03T19:42:49.037Z,54.39
2022-08-03T19:46:04.881Z,54.62
2022-08-03T19:48:54.533Z,54.71
2022-08-03T19:52:01.255Z,54.68
2022-08-03T19:54:56.225Z,54.71
2022-08-03T19:57:49.340Z,54.84
2022-08-03T20:00:48.779Z,55.00
2022-08-03T20:03:43.298Z,54.91
2022-08-03T20:06:32.927Z,55.25
2022-08-03T20:09:21.747Z,55.35
2022-08-03T20:12:12.609Z,55.37
2022-08-03T20:14:52.598Z,55.39
2022-08-03T20:17:56.923Z,55.37
2022-08-03T20:20:52.010Z,55.56
2022-08-03T20:24:01.912Z,55.72
2022-08-03T20:26:53.383Z,55.85
2022-08-03T20:30:06.219Z,55.88
2022-08-03T20:32:55.153Z,56.02
2022-08-03T20:35:45.923Z,56.21
2022-08-03T20:38:43.674Z,56.26
2022-08-03T20:41:35.976Z,56.27
2022-08-03T20:44:25.924Z,56.35
2022-08-03T20:47:23.652Z,56.46
2022-08-03T20:50:14.448Z,56.64
2022-08-03T20:53:04.830Z,56.54
2022-08-03T20:56:02.242Z,56.76
2022-08-03T20:58:54.503Z,56.59
2022-08-03T21:01:44.395Z,56.84
2022-08-03T21:04:33.550Z,57.01
2022-08-03T21:07:23.848Z,57.13
2022-08-03T21:10:15.979Z,57.26
2022-08-03T21:13:17.637Z,57.45
2022-08-03T21:16:14.761Z,57.36
2022-08-03T21:19:05.407Z,57.59
2022-08-03T21:21:55.120Z,57.65
2022-08-03T21:24:45.663Z,57.63
2022-08-03T21:27:35.664Z,57.79
2022-08-03T21:30:27.887Z,57.89
2022-08-03T21:33:17.159Z,58.10
2022-08-03T21:36:01.280Z,58.17
2022-08-03T21:38:56.397Z,58.26
2022-08-03T21:41:46.344Z,58.30
2022-08-03T21:44:35.392Z,58.24
2022-08-03T21:47:25.657Z,58.49
2022-08-03T21:50:15.992Z,58.59
2022-08-03T21:53:06.765Z,58.63
2022-08-03T21:55:58.219Z,58.71
2022-08-03T21:58:51.108Z,58.66
2022-08-03T22:01:42.705Z,58.81
2022-08-03T22:04:53.052Z,58.67
2022-08-03T22:07:43.519Z,58.70
2022-08-03T22:10:32.681Z,58.89
2022-08-03T22:13:44.142Z,59.13
2022-08-03T22:16:31.151Z,59.21
2022-08-03T22:19:19.805Z,59.12
2022-08-03T22:22:13.243Z,59.27
2022-08-03T22:25:05.021Z,59.22
2022-08-03T22:27:54.851Z,59.24
2022-08-03T22:30:43.664Z,59.20
2022-08-03T22:33:34.542Z,59.40
2022-08-03T22:36:18.001Z,59.47
2022-08-03T22:39:07.551Z,59.49
2022-08-03T22:41:57.898Z,59.61
2022-08-03T22:44:48.747Z,59.52
2022-08-03T22:47:40.069Z,59.33
2022-08-03T22:50:32.660Z,59.43
2022-08-03T22:53:22.612Z,59.51
2022-08-03T22:56:12.534Z,59.49
2022-08-03T22:59:01.231Z,59.70
2022-08-03T23:02:20.910Z,59.63
2022-08-03T23:06:01.574Z,59.46
2022-08-03T23:08:30.849Z,59.53
2022-08-03T23:11:21.517Z,59.56
2022-08-03T23:14:12.459Z,59.64
2022-08-03T23:17:08.589Z,59.61
2022-08-03T23:20:01.683Z,59.37
2022-08-03T23:22:50.915Z,59.49
2022-08-03T23:25:41.514Z,59.41
2022-08-03T23:28:33.317Z,59.56
2022-08-03T23:31:22.860Z,59.57
2022-08-03T23:34:32.508Z,59.68
2022-08-03T23:37:21.580Z,59.75
2022-08-03T23:40:13.117Z,59.78
2022-08-03T23:43:03.316Z,59.69
2022-08-03T23:45:54.876Z,59.70
2022-08-03T23:48:43.839Z,59.81
2022-08-03T23:51:42.190Z,59.96
2022-08-03T23:54:39.575Z,60.03
2022-08-03T23:57:32.790Z,59.94
